sensor_id;sensor_type;location;lat;lon;timestamp;P1;durP1;ratioP1;P2;durP2;ratioP2
42760;SDS011;31672;47.638;19.026;2023-05-23T00:00:12;4.22;;;3.17;;
42760;SDS011;31672;47.638;19.026;2023-05-23T00:05:16;5.15;;;2.53;;
42760;SDS011;31672;47.638;19.026;2023-05-23T00:10:20;6.22;;;3.10;;
42760;SDS011;31672;47.638;19.026;2023-05-23T00:15:24;4.53;;;2.47;;
42760;SDS011;31672;47.638;19.026;2023-05-23T00:20:26;2.85;;;2.05;;
42760;SDS011;31672;47.638;19.026;2023-05-23T00:25:31;5.22;;;3.28;;
42760;SDS011;31672;47.638;19.026;2023-05-23T00:30:37;5.07;;;2.67;;
42760;SDS011;31672;47.638;19.026;2023-05-23T00:35:41;5.38;;;2.70;;
42760;SDS011;31672;47.638;19.026;2023-05-23T00:40:44;3.33;;;2.15;;
42760;SDS011;31672;47.638;19.026;2023-05-23T00:45:47;5.13;;;2.70;;
42760;SDS011;31672;47.638;19.026;2023-05-23T00:50:51;6.15;;;3.22;;
42760;SDS011;31672;47.638;19.026;2023-05-23T00:55:56;3.92;;;2.80;;
42760;SDS011;31672;47.638;19.026;2023-05-23T01:00:59;6.20;;;3.05;;
42760;SDS011;31672;47.638;19.026;2023-05-23T01:06:02;6.80;;;3.58;;
42760;SDS011;31672;47.638;19.026;2023-05-23T01:11:09;3.22;;;2.80;;
42760;SDS011;31672;47.638;19.026;2023-05-23T01:16:38;8.05;;;3.25;;
42760;SDS011;31672;47.638;19.026;2023-05-23T01:21:52;3.90;;;2.75;;
42760;SDS011;31672;47.638;19.026;2023-05-23T01:32:40;6.00;;;3.10;;
42760;SDS011;31672;47.638;19.026;2023-05-23T01:37:44;8.65;;;3.30;;
42760;SDS011;31672;47.638;19.026;2023-05-23T01:42:47;6.85;;;2.90;;
42760;SDS011;31672;47.638;19.026;2023-05-23T01:47:51;6.10;;;2.97;;
42760;SDS011;31672;47.638;19.026;2023-05-23T01:52:56;5.97;;;3.10;;
42760;SDS011;31672;47.638;19.026;2023-05-23T01:58:00;6.03;;;3.30;;
42760;SDS011;31672;47.638;19.026;2023-05-23T02:03:04;4.32;;;2.78;;
42760;SDS011;31672;47.638;19.026;2023-05-23T02:08:07;6.20;;;2.80;;
42760;SDS011;31672;47.638;19.026;2023-05-23T02:13:10;7.57;;;2.92;;
42760;SDS011;31672;47.638;19.026;2023-05-23T02:18:13;3.90;;;2.90;;
42760;SDS011;31672;47.638;19.026;2023-05-23T02:23:16;4.30;;;2.90;;
42760;SDS011;31672;47.638;19.026;2023-05-23T02:28:20;8.40;;;4.45;;
42760;SDS011;31672;47.638;19.026;2023-05-23T02:33:23;7.47;;;4.35;;
42760;SDS011;31672;47.638;19.026;2023-05-23T02:38:26;10.20;;;5.03;;
42760;SDS011;31672;47.638;19.026;2023-05-23T02:43:30;5.30;;;3.72;;
42760;SDS011;31672;47.638;19.026;2023-05-23T02:48:33;4.80;;;3.13;;
42760;SDS011;31672;47.638;19.026;2023-05-23T02:53:36;6.60;;;4.73;;
42760;SDS011;31672;47.638;19.026;2023-05-23T02:58:40;6.63;;;3.90;;
42760;SDS011;31672;47.638;19.026;2023-05-23T03:03:43;4.77;;;3.67;;
42760;SDS011;31672;47.638;19.026;2023-05-23T03:08:47;7.00;;;3.80;;
42760;SDS011;31672;47.638;19.026;2023-05-23T03:13:50;4.43;;;3.28;;
42760;SDS011;31672;47.638;19.026;2023-05-23T03:18:53;7.23;;;3.77;;
42760;SDS011;31672;47.638;19.026;2023-05-23T03:23:56;5.80;;;3.50;;
42760;SDS011;31672;47.638;19.026;2023-05-23T03:28:59;4.63;;;3.30;;
42760;SDS011;31672;47.638;19.026;2023-05-23T03:34:03;4.90;;;3.65;;
42760;SDS011;31672;47.638;19.026;2023-05-23T03:39:07;5.75;;;3.20;;
42760;SDS011;31672;47.638;19.026;2023-05-23T03:44:10;4.75;;;3.50;;
42760;SDS011;31672;47.638;19.026;2023-05-23T03:49:13;7.53;;;5.10;;
42760;SDS011;31672;47.638;19.026;2023-05-23T03:54:16;5.95;;;4.50;;
42760;SDS011;31672;47.638;19.026;2023-05-23T03:59:20;9.45;;;4.43;;
42760;SDS011;31672;47.638;19.026;2023-05-23T04:04:23;6.80;;;4.28;;
42760;SDS011;31672;47.638;19.026;2023-05-23T04:09:27;3.92;;;3.03;;
42760;SDS011;31672;47.638;19.026;2023-05-23T04:14:30;11.07;;;4.97;;
42760;SDS011;31672;47.638;19.026;2023-05-23T04:19:34;4.88;;;3.72;;
42760;SDS011;31672;47.638;19.026;2023-05-23T04:24:38;12.20;;;3.88;;
42760;SDS011;31672;47.638;19.026;2023-05-23T04:29:41;5.60;;;3.55;;
42760;SDS011;31672;47.638;19.026;2023-05-23T04:34:45;6.57;;;4.07;;
42760;SDS011;31672;47.638;19.026;2023-05-23T04:39:48;7.35;;;3.30;;
42760;SDS011;31672;47.638;19.026;2023-05-23T04:44:52;5.68;;;3.17;;
42760;SDS011;31672;47.638;19.026;2023-05-23T04:49:58;8.52;;;3.88;;
42760;SDS011;31672;47.638;19.026;2023-05-23T04:55:01;3.92;;;3.38;;
42760;SDS011;31672;47.638;19.026;2023-05-23T05:00:06;6.72;;;3.78;;
42760;SDS011;31672;47.638;19.026;2023-05-23T05:05:12;5.47;;;3.03;;
42760;SDS011;31672;47.638;19.026;2023-05-23T05:10:15;5.32;;;3.58;;
42760;SDS011;31672;47.638;19.026;2023-05-23T05:15:19;6.15;;;4.07;;
42760;SDS011;31672;47.638;19.026;2023-05-23T05:20:22;5.35;;;3.65;;
42760;SDS011;31672;47.638;19.026;2023-05-23T05:25:25;7.95;;;4.53;;
42760;SDS011;31672;47.638;19.026;2023-05-23T05:30:33;6.57;;;3.58;;
42760;SDS011;31672;47.638;19.026;2023-05-23T05:35:40;9.27;;;4.38;;
42760;SDS011;31672;47.638;19.026;2023-05-23T05:40:43;4.88;;;3.08;;
42760;SDS011;31672;47.638;19.026;2023-05-23T05:45:47;15.27;;;3.75;;
42760;SDS011;31672;47.638;19.026;2023-05-23T05:50:50;6.25;;;3.70;;
42760;SDS011;31672;47.638;19.026;2023-05-23T05:55:53;4.00;;;3.10;;
42760;SDS011;31672;47.638;19.026;2023-05-23T06:00:56;9.65;;;3.70;;
42760;SDS011;31672;47.638;19.026;2023-05-23T06:06:00;6.57;;;3.35;;
42760;SDS011;31672;47.638;19.026;2023-05-23T06:11:03;4.03;;;2.95;;
42760;SDS011;31672;47.638;19.026;2023-05-23T06:16:06;5.47;;;2.80;;
42760;SDS011;31672;47.638;19.026;2023-05-23T06:21:09;8.45;;;2.78;;
42760;SDS011;31672;47.638;19.026;2023-05-23T06:26:13;8.57;;;3.03;;
42760;SDS011;31672;47.638;19.026;2023-05-23T06:31:16;7.20;;;3.00;;
42760;SDS011;31672;47.638;19.026;2023-05-23T06:36:19;6.03;;;2.78;;
42760;SDS011;31672;47.638;19.026;2023-05-23T06:41:22;5.32;;;2.80;;
42760;SDS011;31672;47.638;19.026;2023-05-23T06:46:25;4.90;;;2.88;;
42760;SDS011;31672;47.638;19.026;2023-05-23T06:51:28;8.30;;;3.58;;
42760;SDS011;31672;47.638;19.026;2023-05-23T06:56:35;6.03;;;3.58;;
42760;SDS011;31672;47.638;19.026;2023-05-23T07:01:38;12.60;;;3.83;;
42760;SDS011;31672;47.638;19.026;2023-05-23T07:06:42;5.07;;;2.80;;
42760;SDS011;31672;47.638;19.026;2023-05-23T07:11:44;6.80;;;3.70;;
42760;SDS011;31672;47.638;19.026;2023-05-23T07:16:47;4.55;;;3.20;;
42760;SDS011;31672;47.638;19.026;2023-05-23T07:21:50;6.35;;;3.67;;
42760;SDS011;31672;47.638;19.026;2023-05-23T07:26:53;4.32;;;2.97;;
42760;SDS011;31672;47.638;19.026;2023-05-23T07:31:57;5.03;;;2.92;;
42760;SDS011;31672;47.638;19.026;2023-05-23T07:37:00;4.40;;;2.60;;
42760;SDS011;31672;47.638;19.026;2023-05-23T07:42:03;4.60;;;2.85;;
42760;SDS011;31672;47.638;19.026;2023-05-23T07:47:06;5.43;;;2.92;;
42760;SDS011;31672;47.638;19.026;2023-05-23T07:52:09;6.13;;;2.80;;
42760;SDS011;31672;47.638;19.026;2023-05-23T07:57:12;6.28;;;2.88;;
42760;SDS011;31672;47.638;19.026;2023-05-23T08:02:18;9.50;;;2.90;;
42760;SDS011;31672;47.638;19.026;2023-05-23T08:07:22;4.47;;;3.35;;
42760;SDS011;31672;47.638;19.026;2023-05-23T08:12:25;5.63;;;3.00;;
42760;SDS011;31672;47.638;19.026;2023-05-23T08:17:28;3.85;;;2.65;;
42760;SDS011;31672;47.638;19.026;2023-05-23T08:22:31;6.78;;;3.47;;
42760;SDS011;31672;47.638;19.026;2023-05-23T08:27:35;7.22;;;3.65;;
42760;SDS011;31672;47.638;19.026;2023-05-23T08:32:38;5.53;;;3.13;;
42760;SDS011;31672;47.638;19.026;2023-05-23T08:37:40;8.82;;;3.58;;
42760;SDS011;31672;47.638;19.026;2023-05-23T08:42:44;5.78;;;3.42;;
42760;SDS011;31672;47.638;19.026;2023-05-23T08:47:51;4.72;;;3.30;;
42760;SDS011;31672;47.638;19.026;2023-05-23T08:52:57;7.45;;;3.65;;
42760;SDS011;31672;47.638;19.026;2023-05-23T08:58:00;8.25;;;3.50;;
42760;SDS011;31672;47.638;19.026;2023-05-23T09:03:05;6.57;;;3.22;;
42760;SDS011;31672;47.638;19.026;2023-05-23T09:08:10;5.60;;;3.25;;
42760;SDS011;31672;47.638;19.026;2023-05-23T09:13:14;6.47;;;3.10;;
42760;SDS011;31672;47.638;19.026;2023-05-23T09:18:25;6.45;;;3.50;;
42760;SDS011;31672;47.638;19.026;2023-05-23T09:23:32;6.80;;;3.20;;
42760;SDS011;31672;47.638;19.026;2023-05-23T09:28:37;5.93;;;3.50;;
42760;SDS011;31672;47.638;19.026;2023-05-23T09:33:45;7.18;;;3.28;;
42760;SDS011;31672;47.638;19.026;2023-05-23T09:38:49;5.47;;;3.30;;
42760;SDS011;31672;47.638;19.026;2023-05-23T09:43:53;6.38;;;3.33;;
42760;SDS011;31672;47.638;19.026;2023-05-23T09:48:57;5.13;;;3.58;;
42760;SDS011;31672;47.638;19.026;2023-05-23T09:54:01;4.22;;;3.20;;
42760;SDS011;31672;47.638;19.026;2023-05-23T09:59:04;4.55;;;3.00;;
42760;SDS011;31672;47.638;19.026;2023-05-23T10:04:09;4.82;;;2.75;;
42760;SDS011;31672;47.638;19.026;2023-05-23T10:09:15;4.72;;;3.05;;
42760;SDS011;31672;47.638;19.026;2023-05-23T10:14:20;6.57;;;3.22;;
42760;SDS011;31672;47.638;19.026;2023-05-23T10:19:34;3.95;;;3.17;;
42760;SDS011;31672;47.638;19.026;2023-05-23T10:24:48;6.85;;;3.72;;
42760;SDS011;31672;47.638;19.026;2023-05-23T10:29:52;4.03;;;2.97;;
42760;SDS011;31672;47.638;19.026;2023-05-23T10:45:23;5.53;;;3.40;;
42760;SDS011;31672;47.638;19.026;2023-05-23T10:50:33;5.38;;;3.05;;
42760;SDS011;31672;47.638;19.026;2023-05-23T10:55:38;7.47;;;3.08;;
42760;SDS011;31672;47.638;19.026;2023-05-23T11:01:00;5.43;;;3.28;;
42760;SDS011;31672;47.638;19.026;2023-05-23T11:06:09;5.47;;;3.47;;
42760;SDS011;31672;47.638;19.026;2023-05-23T11:16:54;4.90;;;3.25;;
42760;SDS011;31672;47.638;19.026;2023-05-23T11:21:58;5.10;;;3.15;;
42760;SDS011;31672;47.638;19.026;2023-05-23T11:27:03;5.10;;;2.83;;
42760;SDS011;31672;47.638;19.026;2023-05-23T11:32:13;5.15;;;3.22;;
42760;SDS011;31672;47.638;19.026;2023-05-23T11:37:19;4.65;;;3.20;;
42760;SDS011;31672;47.638;19.026;2023-05-23T11:42:28;4.20;;;3.15;;
42760;SDS011;31672;47.638;19.026;2023-05-23T11:47:31;4.72;;;3.20;;
42760;SDS011;31672;47.638;19.026;2023-05-23T11:52:41;5.50;;;3.42;;
42760;SDS011;31672;47.638;19.026;2023-05-23T11:57:45;4.38;;;3.55;;
42760;SDS011;31672;47.638;19.026;2023-05-23T12:02:50;11.70;;;3.70;;
42760;SDS011;31672;47.638;19.026;2023-05-23T12:07:53;9.80;;;4.43;;
42760;SDS011;31672;47.638;19.026;2023-05-23T12:12:56;6.00;;;3.75;;
42760;SDS011;31672;47.638;19.026;2023-05-23T12:17:59;5.53;;;3.75;;
42760;SDS011;31672;47.638;19.026;2023-05-23T12:23:04;7.20;;;3.55;;
42760;SDS011;31672;47.638;19.026;2023-05-23T12:28:08;5.60;;;3.95;;
42760;SDS011;31672;47.638;19.026;2023-05-23T12:33:14;4.35;;;3.20;;
42760;SDS011;31672;47.638;19.026;2023-05-23T12:38:21;5.38;;;3.22;;
42760;SDS011;31672;47.638;19.026;2023-05-23T12:43:25;3.97;;;2.42;;
42760;SDS011;31672;47.638;19.026;2023-05-23T12:48:28;4.40;;;2.70;;
42760;SDS011;31672;47.638;19.026;2023-05-23T12:53:31;4.35;;;2.90;;
42760;SDS011;31672;47.638;19.026;2023-05-23T12:58:34;3.33;;;2.95;;
42760;SDS011;31672;47.638;19.026;2023-05-23T13:03:37;4.88;;;2.88;;
42760;SDS011;31672;47.638;19.026;2023-05-23T13:08:41;4.75;;;2.88;;
42760;SDS011;31672;47.638;19.026;2023-05-23T13:13:45;4.45;;;3.30;;
42760;SDS011;31672;47.638;19.026;2023-05-23T13:18:48;6.22;;;4.10;;
42760;SDS011;31672;47.638;19.026;2023-05-23T13:23:51;4.93;;;2.97;;
42760;SDS011;31672;47.638;19.026;2023-05-23T13:28:54;5.13;;;4.07;;
42760;SDS011;31672;47.638;19.026;2023-05-23T13:33:57;5.45;;;3.25;;
42760;SDS011;31672;47.638;19.026;2023-05-23T13:39:00;4.32;;;3.13;;
42760;SDS011;31672;47.638;19.026;2023-05-23T13:44:07;5.50;;;3.20;;
42760;SDS011;31672;47.638;19.026;2023-05-23T13:49:10;6.93;;;3.17;;
42760;SDS011;31672;47.638;19.026;2023-05-23T13:54:13;5.47;;;3.35;;
42760;SDS011;31672;47.638;19.026;2023-05-23T13:59:17;3.65;;;2.80;;
42760;SDS011;31672;47.638;19.026;2023-05-23T14:04:22;5.97;;;3.10;;
42760;SDS011;31672;47.638;19.026;2023-05-23T14:09:25;5.65;;;3.17;;
42760;SDS011;31672;47.638;19.026;2023-05-23T14:14:28;3.70;;;2.58;;
42760;SDS011;31672;47.638;19.026;2023-05-23T14:19:31;7.35;;;2.85;;
42760;SDS011;31672;47.638;19.026;2023-05-23T14:24:34;4.15;;;2.78;;
42760;SDS011;31672;47.638;19.026;2023-05-23T14:29:38;3.03;;;2.38;;
42760;SDS011;31672;47.638;19.026;2023-05-23T14:34:41;4.88;;;2.95;;
42760;SDS011;31672;47.638;19.026;2023-05-23T14:39:44;3.90;;;1.95;;
42760;SDS011;31672;47.638;19.026;2023-05-23T14:44:47;2.83;;;1.98;;
42760;SDS011;31672;47.638;19.026;2023-05-23T14:49:50;4.05;;;2.13;;
42760;SDS011;31672;47.638;19.026;2023-05-23T14:54:53;7.13;;;2.97;;
42760;SDS011;31672;47.638;19.026;2023-05-23T14:59:56;4.05;;;2.60;;
42760;SDS011;31672;47.638;19.026;2023-05-23T15:04:59;3.55;;;2.17;;
42760;SDS011;31672;47.638;19.026;2023-05-23T15:10:03;3.80;;;2.40;;
42760;SDS011;31672;47.638;19.026;2023-05-23T15:15:08;4.43;;;2.30;;
42760;SDS011;31672;47.638;19.026;2023-05-23T15:20:11;2.88;;;2.30;;
42760;SDS011;31672;47.638;19.026;2023-05-23T15:25:15;4.68;;;2.60;;
42760;SDS011;31672;47.638;19.026;2023-05-23T15:30:23;4.00;;;2.58;;
42760;SDS011;31672;47.638;19.026;2023-05-23T15:35:26;3.53;;;2.67;;
42760;SDS011;31672;47.638;19.026;2023-05-23T15:40:29;4.45;;;2.28;;
42760;SDS011;31672;47.638;19.026;2023-05-23T15:45:32;4.45;;;2.00;;
42760;SDS011;31672;47.638;19.026;2023-05-23T15:50:35;5.50;;;2.35;;
42760;SDS011;31672;47.638;19.026;2023-05-23T15:55:39;3.72;;;2.10;;
42760;SDS011;31672;47.638;19.026;2023-05-23T16:00:43;4.85;;;2.53;;
42760;SDS011;31672;47.638;19.026;2023-05-23T16:05:47;5.60;;;1.88;;
42760;SDS011;31672;47.638;19.026;2023-05-23T16:10:50;2.53;;;1.75;;
42760;SDS011;31672;47.638;19.026;2023-05-23T16:15:53;3.92;;;1.90;;
42760;SDS011;31672;47.638;19.026;2023-05-23T16:20:56;4.45;;;2.67;;
42760;SDS011;31672;47.638;19.026;2023-05-23T16:25:59;3.50;;;2.20;;
42760;SDS011;31672;47.638;19.026;2023-05-23T16:31:02;5.30;;;2.65;;
42760;SDS011;31672;47.638;19.026;2023-05-23T16:36:05;3.65;;;2.40;;
42760;SDS011;31672;47.638;19.026;2023-05-23T16:41:09;4.47;;;2.30;;
42760;SDS011;31672;47.638;19.026;2023-05-23T16:46:12;5.22;;;2.40;;
42760;SDS011;31672;47.638;19.026;2023-05-23T16:51:15;3.30;;;2.40;;
42760;SDS011;31672;47.638;19.026;2023-05-23T16:56:18;4.53;;;2.33;;
42760;SDS011;31672;47.638;19.026;2023-05-23T17:01:22;3.50;;;2.35;;
42760;SDS011;31672;47.638;19.026;2023-05-23T17:06:25;5.93;;;3.15;;
42760;SDS011;31672;47.638;19.026;2023-05-23T17:11:29;10.45;;;3.20;;
42760;SDS011;31672;47.638;19.026;2023-05-23T17:16:31;9.63;;;3.20;;
42760;SDS011;31672;47.638;19.026;2023-05-23T17:21:35;9.15;;;3.08;;
42760;SDS011;31672;47.638;19.026;2023-05-23T17:26:38;11.27;;;5.40;;
42760;SDS011;31672;47.638;19.026;2023-05-23T17:31:42;6.35;;;3.72;;
42760;SDS011;31672;47.638;19.026;2023-05-23T17:36:45;6.60;;;3.67;;
42760;SDS011;31672;47.638;19.026;2023-05-23T17:41:48;7.18;;;3.15;;
42760;SDS011;31672;47.638;19.026;2023-05-23T17:46:51;10.55;;;3.90;;
42760;SDS011;31672;47.638;19.026;2023-05-23T17:51:54;9.80;;;3.72;;
42760;SDS011;31672;47.638;19.026;2023-05-23T17:56:57;6.05;;;3.75;;
42760;SDS011;31672;47.638;19.026;2023-05-23T18:02:00;5.95;;;3.80;;
42760;SDS011;31672;47.638;19.026;2023-05-23T18:07:08;5.45;;;3.25;;
42760;SDS011;31672;47.638;19.026;2023-05-23T18:12:14;5.95;;;3.40;;
42760;SDS011;31672;47.638;19.026;2023-05-23T18:17:18;6.75;;;2.45;;
42760;SDS011;31672;47.638;19.026;2023-05-23T18:22:20;4.30;;;3.00;;
42760;SDS011;31672;47.638;19.026;2023-05-23T18:27:25;6.35;;;3.00;;
42760;SDS011;31672;47.638;19.026;2023-05-23T18:32:28;4.80;;;2.92;;
42760;SDS011;31672;47.638;19.026;2023-05-23T18:37:32;3.95;;;2.80;;
42760;SDS011;31672;47.638;19.026;2023-05-23T18:42:35;4.13;;;2.80;;
42760;SDS011;31672;47.638;19.026;2023-05-23T18:47:38;4.20;;;3.05;;
42760;SDS011;31672;47.638;19.026;2023-05-23T18:52:41;4.15;;;3.00;;
42760;SDS011;31672;47.638;19.026;2023-05-23T18:57:44;3.50;;;2.60;;
42760;SDS011;31672;47.638;19.026;2023-05-23T19:02:47;4.40;;;3.10;;
42760;SDS011;31672;47.638;19.026;2023-05-23T19:07:51;5.00;;;2.63;;
42760;SDS011;31672;47.638;19.026;2023-05-23T19:12:55;3.78;;;2.67;;
42760;SDS011;31672;47.638;19.026;2023-05-23T19:17:57;3.97;;;3.13;;
42760;SDS011;31672;47.638;19.026;2023-05-23T19:23:00;5.13;;;2.90;;
42760;SDS011;31672;47.638;19.026;2023-05-23T19:28:04;5.63;;;2.92;;
42760;SDS011;31672;47.638;19.026;2023-05-23T19:33:07;4.70;;;2.70;;
42760;SDS011;31672;47.638;19.026;2023-05-23T19:38:11;3.67;;;2.78;;
42760;SDS011;31672;47.638;19.026;2023-05-23T19:43:14;4.50;;;3.05;;
42760;SDS011;31672;47.638;19.026;2023-05-23T19:48:17;4.55;;;3.28;;
42760;SDS011;31672;47.638;19.026;2023-05-23T19:53:20;3.92;;;3.17;;
42760;SDS011;31672;47.638;19.026;2023-05-23T19:58:24;6.40;;;3.55;;
42760;SDS011;31672;47.638;19.026;2023-05-23T20:03:27;5.97;;;3.60;;
42760;SDS011;31672;47.638;19.026;2023-05-23T20:08:30;6.10;;;4.00;;
42760;SDS011;31672;47.638;19.026;2023-05-23T20:13:34;3.58;;;2.88;;
42760;SDS011;31672;47.638;19.026;2023-05-23T20:18:40;4.38;;;3.45;;
42760;SDS011;31672;47.638;19.026;2023-05-23T20:23:44;5.50;;;3.70;;
42760;SDS011;31672;47.638;19.026;2023-05-23T20:28:47;6.90;;;3.72;;
42760;SDS011;31672;47.638;19.026;2023-05-23T20:33:50;4.75;;;3.40;;
42760;SDS011;31672;47.638;19.026;2023-05-23T20:38:54;5.55;;;4.70;;
42760;SDS011;31672;47.638;19.026;2023-05-23T20:43:57;4.82;;;3.70;;
42760;SDS011;31672;47.638;19.026;2023-05-23T20:49:03;6.70;;;5.00;;
42760;SDS011;31672;47.638;19.026;2023-05-23T20:54:05;5.43;;;4.03;;
42760;SDS011;31672;47.638;19.026;2023-05-23T20:59:09;4.75;;;3.53;;
42760;SDS011;31672;47.638;19.026;2023-05-23T21:04:13;5.32;;;4.07;;
42760;SDS011;31672;47.638;19.026;2023-05-23T21:09:19;5.70;;;3.55;;
42760;SDS011;31672;47.638;19.026;2023-05-23T21:14:23;5.45;;;3.90;;
42760;SDS011;31672;47.638;19.026;2023-05-23T21:19:26;4.68;;;3.95;;
42760;SDS011;31672;47.638;19.026;2023-05-23T21:24:29;3.92;;;3.40;;
42760;SDS011;31672;47.638;19.026;2023-05-23T21:29:33;6.32;;;4.03;;
42760;SDS011;31672;47.638;19.026;2023-05-23T21:34:36;5.88;;;4.65;;
42760;SDS011;31672;47.638;19.026;2023-05-23T21:39:39;6.53;;;4.43;;
42760;SDS011;31672;47.638;19.026;2023-05-23T21:44:53;6.45;;;3.95;;
42760;SDS011;31672;47.638;19.026;2023-05-23T21:49:56;8.27;;;3.70;;
42760;SDS011;31672;47.638;19.026;2023-05-23T21:54:59;5.82;;;3.90;;
42760;SDS011;31672;47.638;19.026;2023-05-23T22:00:03;6.18;;;3.88;;
42760;SDS011;31672;47.638;19.026;2023-05-23T22:05:08;6.22;;;4.35;;
42760;SDS011;31672;47.638;19.026;2023-05-23T22:10:11;4.55;;;3.25;;
42760;SDS011;31672;47.638;19.026;2023-05-23T22:15:14;4.70;;;3.80;;
42760;SDS011;31672;47.638;19.026;2023-05-23T22:20:17;5.22;;;3.50;;
42760;SDS011;31672;47.638;19.026;2023-05-23T22:25:21;6.05;;;3.60;;
42760;SDS011;31672;47.638;19.026;2023-05-23T22:30:26;5.72;;;3.38;;
42760;SDS011;31672;47.638;19.026;2023-05-23T22:35:30;5.60;;;3.97;;
42760;SDS011;31672;47.638;19.026;2023-05-23T22:40:33;5.40;;;4.40;;
42760;SDS011;31672;47.638;19.026;2023-05-23T22:45:36;7.00;;;3.58;;
42760;SDS011;31672;47.638;19.026;2023-05-23T22:50:43;4.78;;;4.07;;
42760;SDS011;31672;47.638;19.026;2023-05-23T22:55:47;3.92;;;3.22;;
42760;SDS011;31672;47.638;19.026;2023-05-23T23:00:51;6.03;;;3.40;;
42760;SDS011;31672;47.638;19.026;2023-05-23T23:05:54;4.75;;;3.58;;
42760;SDS011;31672;47.638;19.026;2023-05-23T23:10:58;9.00;;;4.63;;
42760;SDS011;31672;47.638;19.026;2023-05-23T23:16:02;5.80;;;3.92;;
42760;SDS011;31672;47.638;19.026;2023-05-23T23:21:05;4.95;;;4.00;;
42760;SDS011;31672;47.638;19.026;2023-05-23T23:26:09;5.80;;;4.50;;
42760;SDS011;31672;47.638;19.026;2023-05-23T23:31:12;7.00;;;4.88;;
42760;SDS011;31672;47.638;19.026;2023-05-23T23:36:15;7.05;;;4.55;;
42760;SDS011;31672;47.638;19.026;2023-05-23T23:41:18;7.25;;;5.50;;
42760;SDS011;31672;47.638;19.026;2023-05-23T23:46:22;7.25;;;5.05;;
42760;SDS011;31672;47.638;19.026;2023-05-23T23:51:25;8.20;;;5.30;;
42760;SDS011;31672;47.638;19.026;2023-05-23T23:56:28;6.57;;;5.38;;
